createdAt,value
2022-08-17T00:00:43.626Z,31.17
2022-08-17T00:03:19.232Z,30.70
2022-08-17T00:05:57.917Z,27.70
2022-08-17T00:08:31.206Z,33.20
2022-08-17T00:11:02.348Z,33.33
2022-08-17T00:13:36.465Z,31.25
2022-08-17T00:16:09.620Z,31.13
2022-08-17T00:19:00.907Z,29.35
2022-08-17T00:21:59.996Z,28.67
2022-08-17T00:24:28.784Z,28.42
2022-08-17T00:26:59.754Z,30.25
2022-08-17T00:29:30.009Z,29.55
2022-08-17T00:31:59.475Z,30.73
2022-08-17T00:34:30.733Z,32.17
2022-08-17T00:37:04.455Z,31.23
2022-08-17T00:39:33.143Z,31.05
2022-08-17T00:42:02.141Z,30.10
2022-08-17T00:44:31.398Z,30.13
2022-08-17T00:47:00.944Z,30.52
2022-08-17T00:49:31.607Z,27.48
2022-08-17T00:52:12.056Z,28.73
2022-08-17T00:54:46.220Z,28.80
2022-08-17T00:57:19.602Z,30.10
2022-08-17T01:00:03.362Z,32.03
2022-08-17T01:02:41.880Z,29.40
2022-08-17T01:05:20.863Z,30.40
2022-08-17T01:07:57.572Z,30.35
2022-08-17T01:10:58.556Z,28.75
2022-08-17T01:13:40.380Z,28.63
2022-08-17T01:16:22.818Z,31.95
2022-08-17T01:18:56.472Z,32.38
2022-08-17T01:21:37.807Z,32.08
2022-08-17T01:24:09.939Z,31.95
2022-08-17T01:26:41.063Z,30.38
2022-08-17T01:29:11.105Z,31.25
2022-08-17T01:31:45.186Z,28.92
2022-08-17T01:34:19.226Z,30.88
2022-08-17T01:39:36.602Z,29.80
2022-08-17T01:42:15.077Z,32.97
2022-08-17T01:44:45.151Z,33.25
2022-08-17T01:47:15.213Z,32.10
2022-08-17T01:49:44.480Z,32.85
2022-08-17T01:52:14.427Z,31.58
2022-08-17T01:54:48.254Z,30.92
2022-08-17T01:57:20.015Z,30.17
2022-08-17T01:59:49.341Z,31.10
2022-08-17T02:02:30.945Z,31.25
2022-08-17T02:05:00.598Z,31.70
2022-08-17T02:07:32.111Z,32.28
2022-08-17T02:10:23.146Z,33.25
2022-08-17T02:12:51.771Z,31.88
2022-08-17T02:15:21.153Z,29.58
2022-08-17T02:17:57.518Z,32.03
2022-08-17T02:20:41.366Z,32.22
2022-08-17T02:23:14.449Z,31.48
2022-08-17T02:25:49.318Z,33.08
2022-08-17T02:28:19.473Z,30.65
2022-08-17T02:31:00.039Z,31.65
2022-08-17T02:33:42.047Z,31.92
2022-08-17T02:36:13.393Z,29.50
2022-08-17T02:38:44.861Z,33.30
2022-08-17T02:41:16.581Z,32.20
2022-08-17T02:43:45.796Z,34.17
2022-08-17T02:46:14.685Z,34.75
2022-08-17T02:48:45.754Z,35.67
2022-08-17T02:51:14.903Z,39.42
2022-08-17T02:53:46.884Z,38.67
2022-08-17T02:56:16.916Z,39.72
2022-08-17T02:58:47.924Z,39.35
2022-08-17T03:01:18.868Z,30.00
2022-08-17T03:03:48.062Z,22.25
2022-08-17T03:06:17.225Z,21.42
2022-08-17T03:08:45.639Z,24.45
2022-08-17T03:11:15.397Z,28.83
2022-08-17T03:13:46.659Z,30.48
2022-08-17T03:16:15.911Z,31.00
2022-08-17T03:18:45.320Z,30.10
2022-08-17T03:21:14.751Z,31.15
2022-08-17T03:23:44.617Z,29.75
2022-08-17T03:26:16.302Z,32.70
2022-08-17T03:28:46.822Z,32.42
2022-08-17T03:31:15.479Z,32.05
2022-08-17T03:33:45.763Z,33.15
2022-08-17T03:36:14.302Z,32.03
2022-08-17T03:38:44.330Z,32.28
2022-08-17T03:41:14.411Z,33.25
2022-08-17T03:43:43.508Z,34.03
2022-08-17T03:46:35.088Z,32.30
2022-08-17T03:49:26.244Z,33.70
2022-08-17T03:52:14.685Z,35.42
2022-08-17T03:55:02.258Z,35.03
2022-08-17T03:57:40.353Z,36.05
2022-08-17T04:00:11.264Z,36.92
2022-08-17T04:02:45.377Z,36.72
2022-08-17T04:05:16.109Z,37.38
2022-08-17T04:07:46.229Z,38.22
2022-08-17T04:10:15.758Z,36.70
2022-08-17T04:12:50.327Z,36.80
2022-08-17T04:15:19.771Z,34.93
2022-08-17T04:17:49.727Z,34.40
2022-08-17T04:20:22.189Z,28.45
2022-08-17T04:23:00.044Z,25.35
2022-08-17T04:25:30.255Z,21.52
2022-08-17T04:28:01.706Z,19.65
2022-08-17T04:30:33.290Z,17.55
2022-08-17T04:33:08.580Z,16.88
2022-08-17T04:35:41.265Z,13.98
2022-08-17T04:38:14.981Z,13.00
2022-08-17T04:41:02.335Z,11.10
2022-08-17T04:43:37.502Z,9.75
2022-08-17T04:46:11.342Z,10.40
2022-08-17T04:48:46.077Z,9.73
2022-08-17T04:51:18.442Z,9.55
2022-08-17T04:53:54.240Z,9.70
2022-08-17T04:56:25.152Z,8.57
2022-08-17T04:58:57.410Z,8.30
2022-08-17T05:01:30.281Z,8.38
2022-08-17T05:04:33.053Z,8.45
2022-08-17T05:06:55.669Z,7.40
2022-08-17T05:09:26.251Z,7.55
2022-08-17T05:12:03.272Z,8.23
2022-08-17T05:14:33.661Z,8.45
2022-08-17T05:17:07.467Z,8.20
2022-08-17T05:19:43.163Z,8.73
2022-08-17T05:22:12.203Z,8.75
2022-08-17T05:24:43.582Z,8.50
2022-08-17T05:27:23.431Z,9.15
2022-08-17T05:29:52.335Z,8.85
2022-08-17T05:32:37.360Z,10.23
2022-08-17T05:35:12.068Z,11.40
2022-08-17T05:37:40.746Z,11.45
2022-08-17T05:40:11.651Z,12.85
2022-08-17T05:42:40.412Z,12.85
2022-08-17T05:45:11.700Z,12.18
2022-08-17T05:47:41.553Z,11.52
2022-08-17T05:50:27.121Z,12.77
2022-08-17T05:53:13.678Z,9.60
2022-08-17T05:55:57.967Z,10.25
2022-08-17T05:58:33.992Z,10.50
2022-08-17T06:01:11.245Z,10.30
2022-08-17T06:03:51.537Z,10.27
2022-08-17T06:06:39.812Z,8.98
2022-08-17T06:09:33.696Z,9.15
2022-08-17T06:12:21.794Z,9.70
2022-08-17T06:15:10.701Z,9.35
2022-08-17T06:17:40.822Z,8.43
2022-08-17T06:20:15.039Z,7.32
2022-08-17T06:22:51.458Z,6.55
2022-08-17T06:25:33.409Z,6.60
2022-08-17T06:28:07.695Z,7.00
2022-08-17T06:31:00.040Z,6.90
2022-08-17T06:33:34.980Z,6.60
2022-08-17T06:36:19.385Z,7.15
2022-08-17T06:39:01.180Z,8.20
2022-08-17T06:41:43.212Z,8.43
2022-08-17T06:44:42.172Z,9.18
2022-08-17T06:47:14.094Z,9.02
2022-08-17T06:50:15.528Z,10.40
2022-08-17T06:52:55.368Z,11.27
2022-08-17T06:55:37.859Z,10.40
2022-08-17T06:58:15.902Z,10.60
2022-08-17T07:00:55.392Z,9.75
2022-08-17T07:03:41.130Z,10.25
2022-08-17T07:06:17.175Z,10.07
2022-08-17T07:08:59.169Z,10.77
2022-08-17T07:11:39.410Z,9.68
2022-08-17T07:14:24.649Z,10.63
2022-08-17T07:16:58.083Z,9.50
2022-08-17T07:19:32.945Z,9.90
2022-08-17T07:22:14.881Z,9.13
2022-08-17T07:24:52.062Z,9.75
2022-08-17T07:27:25.159Z,10.23
2022-08-17T07:30:03.742Z,9.63
2022-08-17T07:32:43.611Z,11.02
2022-08-17T07:35:20.026Z,12.52
2022-08-17T07:37:57.296Z,13.60
2022-08-17T07:40:35.177Z,15.65
2022-08-17T07:43:22.343Z,15.82
2022-08-17T07:46:35.778Z,17.75
2022-08-17T07:49:36.861Z,18.42
2022-08-17T07:52:24.303Z,18.50
2022-08-17T07:54:59.726Z,18.52
2022-08-17T07:57:37.760Z,19.30
2022-08-17T08:00:27.277Z,19.98
2022-08-17T08:03:19.080Z,22.67
2022-08-17T08:06:01.732Z,22.80
2022-08-17T08:08:38.716Z,22.80
2022-08-17T08:11:12.117Z,24.80
2022-08-17T08:13:45.658Z,25.02
2022-08-17T08:16:27.378Z,24.20
2022-08-17T08:19:00.319Z,25.17
2022-08-17T08:22:08.564Z,26.30
2022-08-17T08:25:01.829Z,21.30
2022-08-17T08:27:45.854Z,20.40
2022-08-17T08:30:18.926Z,17.58
2022-08-17T08:33:20.196Z,16.90
2022-08-17T08:35:55.745Z,15.85
2022-08-17T08:38:40.755Z,16.60
2022-08-17T08:41:35.115Z,17.30
2022-08-17T08:45:01.096Z,15.48
2022-08-17T08:47:29.581Z,12.18
2022-08-17T08:50:37.981Z,12.63
2022-08-17T08:53:34.021Z,11.02
2022-08-17T08:56:11.896Z,12.23
2022-08-17T08:58:54.945Z,10.60
2022-08-17T09:01:32.563Z,11.13
2022-08-17T09:04:24.751Z,10.55
2022-08-17T09:07:10.500Z,10.85
2022-08-17T09:09:52.693Z,10.87
2022-08-17T09:12:35.319Z,11.65
2022-08-17T09:15:14.564Z,11.15
2022-08-17T09:18:39.606Z,11.05
2022-08-17T09:20:59.561Z,12.27
2022-08-17T09:23:38.424Z,10.85
2022-08-17T09:26:17.361Z,10.70
2022-08-17T09:28:53.574Z,11.88
2022-08-17T09:31:31.279Z,12.02
2022-08-17T09:34:04.913Z,11.40
2022-08-17T09:36:45.212Z,10.60
2022-08-17T09:39:21.218Z,11.68
2022-08-17T09:42:07.303Z,9.57
2022-08-17T09:44:44.076Z,9.68
2022-08-17T09:47:22.505Z,9.40
2022-08-17T09:49:58.853Z,9.57
2022-08-17T09:52:31.230Z,9.90
2022-08-17T09:55:02.876Z,8.80
2022-08-17T09:57:53.280Z,9.10
2022-08-17T10:00:27.809Z,10.05
2022-08-17T10:03:30.686Z,10.20
2022-08-17T10:06:10.942Z,10.65
2022-08-17T10:08:52.635Z,11.10
2022-08-17T10:12:09.263Z,10.85
2022-08-17T10:14:44.950Z,10.07
2022-08-17T10:17:35.115Z,9.68
2022-08-17T10:20:15.657Z,8.55
2022-08-17T10:23:08.865Z,9.15
2022-08-17T10:26:02.464Z,10.00
2022-08-17T10:28:43.503Z,9.60
2022-08-17T10:31:40.802Z,10.60
2022-08-17T10:34:36.147Z,10.02
2022-08-17T10:37:40.642Z,10.82
2022-08-17T10:40:35.570Z,12.48
2022-08-17T10:43:31.062Z,14.98
2022-08-17T10:46:30.417Z,16.85
2022-08-17T10:49:26.197Z,18.08
2022-08-17T10:51:58.671Z,19.00
2022-08-17T10:54:47.845Z,19.67
2022-08-17T10:57:42.085Z,20.02
2022-08-17T11:00:16.998Z,20.17
2022-08-17T11:02:52.706Z,19.17
2022-08-17T11:05:58.860Z,18.60
2022-08-17T11:09:24.725Z,17.13
2022-08-17T11:12:10.502Z,14.55
2022-08-17T11:15:00.604Z,12.60
2022-08-17T11:18:02.916Z,11.55
2022-08-17T11:21:02.202Z,11.48
2022-08-17T11:24:20.555Z,10.13
2022-08-17T11:27:12.152Z,10.98
2022-08-17T11:30:01.881Z,10.15
2022-08-17T11:32:47.431Z,10.43
2022-08-17T11:35:40.794Z,10.68
2022-08-17T11:38:25.821Z,10.43
2022-08-17T11:41:19.971Z,10.80
2022-08-17T11:44:22.933Z,11.80
2022-08-17T11:47:28.687Z,12.45
2022-08-17T11:50:52.696Z,13.60
2022-08-17T11:54:34.102Z,13.55
2022-08-17T11:58:00.397Z,13.23
2022-08-17T12:00:57.139Z,14.68
2022-08-17T12:03:55.614Z,15.40
2022-08-17T12:06:50.235Z,32.65
2022-08-17T12:09:24.638Z,17.63
2022-08-17T12:12:13.374Z,16.35
2022-08-17T12:17:48.498Z,15.60
2022-08-17T12:20:27.858Z,13.93
2022-08-17T12:23:07.515Z,13.15
2022-08-17T12:25:43.791Z,13.77
2022-08-17T12:28:25.895Z,15.07
2022-08-17T12:31:01.113Z,14.77
2022-08-17T12:33:30.851Z,15.30
2022-08-17T12:36:06.290Z,16.50
2022-08-17T12:38:39.325Z,15.27
2022-08-17T12:41:29.343Z,16.92
2022-08-17T12:44:02.310Z,16.70
2022-08-17T12:46:46.445Z,17.08
2022-08-17T12:49:23.516Z,17.85
2022-08-17T12:52:02.408Z,18.55
2022-08-17T12:54:41.813Z,18.70
2022-08-17T12:57:17.164Z,19.70
2022-08-17T13:03:00.274Z,20.42
2022-08-17T13:05:36.681Z,21.33
2022-08-17T13:08:17.550Z,20.17
2022-08-17T13:11:00.509Z,21.48
2022-08-17T13:13:33.569Z,21.17
2022-08-17T13:16:06.184Z,21.30
2022-08-17T13:18:43.817Z,21.08
2022-08-17T13:21:27.959Z,23.60
2022-08-17T13:24:02.504Z,22.65
2022-08-17T13:26:35.479Z,22.70
2022-08-17T13:29:08.066Z,22.88
2022-08-17T13:31:52.076Z,25.45
2022-08-17T13:35:11.972Z,23.52
2022-08-17T13:37:36.191Z,22.10
2022-08-17T13:40:33.920Z,23.35
2022-08-17T13:43:03.441Z,22.13
2022-08-17T13:45:43.576Z,23.27
2022-08-17T13:48:23.626Z,22.20
2022-08-17T13:51:34.912Z,21.65
2022-08-17T13:54:21.983Z,22.83
2022-08-17T13:57:00.126Z,23.95
2022-08-17T13:59:54.300Z,21.60
2022-08-17T14:02:27.513Z,22.43
2022-08-17T14:05:06.375Z,21.77
2022-08-17T14:07:40.133Z,23.92
2022-08-17T14:10:15.171Z,23.52
2022-08-17T14:12:50.537Z,20.52
2022-08-17T14:15:55.427Z,19.05
2022-08-17T14:18:17.786Z,20.20
2022-08-17T14:20:46.679Z,18.50
2022-08-17T14:23:18.961Z,20.73
2022-08-17T14:25:48.103Z,18.92
2022-08-17T14:28:17.202Z,21.58
2022-08-17T14:30:46.323Z,21.05
2022-08-17T14:33:15.185Z,19.98
2022-08-17T14:35:44.180Z,20.58
2022-08-17T14:38:15.871Z,21.38
2022-08-17T14:40:44.678Z,21.02
2022-08-17T14:43:13.701Z,20.85
2022-08-17T14:45:42.749Z,22.30
2022-08-17T14:48:11.727Z,21.33
2022-08-17T14:50:47.193Z,21.52
2022-08-17T14:53:21.735Z,22.67
2022-08-17T14:55:52.296Z,21.40
2022-08-17T14:58:21.372Z,20.42
2022-08-17T15:00:50.964Z,21.60
2022-08-17T15:03:20.854Z,22.10
2022-08-17T15:05:51.364Z,22.55
2022-08-17T15:08:22.004Z,24.30
2022-08-17T15:10:54.193Z,24.10
2022-08-17T15:13:27.208Z,24.77
2022-08-17T15:15:56.777Z,24.50
2022-08-17T15:18:25.862Z,24.02
2022-08-17T15:20:54.782Z,22.80
2022-08-17T15:23:28.572Z,22.83
2022-08-17T15:25:57.338Z,21.63
2022-08-17T15:28:26.517Z,21.63
2022-08-17T15:30:56.134Z,19.70
2022-08-17T15:33:30.152Z,18.13
2022-08-17T15:36:06.217Z,19.50
2022-08-17T15:38:39.465Z,16.48
2022-08-17T15:41:10.939Z,15.05
2022-08-17T15:43:39.636Z,14.98
2022-08-17T15:46:12.725Z,14.35
2022-08-17T15:48:45.009Z,15.00
2022-08-17T15:51:17.049Z,15.73
2022-08-17T15:53:51.623Z,14.57
2022-08-17T15:56:23.505Z,14.07
2022-08-17T15:58:54.025Z,13.57
2022-08-17T16:02:20.021Z,15.45
2022-08-17T16:04:26.765Z,13.57
2022-08-17T16:07:01.212Z,14.73
2022-08-17T16:09:31.409Z,12.18
2022-08-17T16:12:09.240Z,12.55
2022-08-17T16:14:39.494Z,11.85
2022-08-17T16:17:38.325Z,11.55
2022-08-17T16:19:58.703Z,11.23
2022-08-17T16:22:35.280Z,11.45
2022-08-17T16:25:12.044Z,13.15
2022-08-17T16:27:41.027Z,13.20
2022-08-17T16:30:17.027Z,14.32
2022-08-17T16:32:51.942Z,14.13
2022-08-17T16:35:25.100Z,15.38
2022-08-17T16:37:55.690Z,16.23
2022-08-17T16:40:36.141Z,17.83
2022-08-17T16:43:10.822Z,17.30
2022-08-17T16:45:40.952Z,18.17
2022-08-17T16:48:12.609Z,18.88
2022-08-17T16:50:42.613Z,18.73
2022-08-17T16:53:31.743Z,18.30
2022-08-17T16:56:02.516Z,19.73
2022-08-17T16:58:31.226Z,19.88
2022-08-17T17:01:02.975Z,19.85
2022-08-17T17:03:33.235Z,19.90
2022-08-17T17:06:13.903Z,19.27
2022-08-17T17:08:48.590Z,17.95
2022-08-17T17:11:28.162Z,18.27
2022-08-17T17:14:02.286Z,18.48
2022-08-17T17:16:41.766Z,18.58
2022-08-17T17:19:35.380Z,18.20
2022-08-17T17:22:15.392Z,17.90
2022-08-17T17:25:06.354Z,17.27
2022-08-17T17:27:49.747Z,17.42
2022-08-17T17:30:27.200Z,17.90
2022-08-17T17:33:11.657Z,17.13
2022-08-17T17:35:49.512Z,16.83
2022-08-17T17:38:29.192Z,16.40
2022-08-17T17:41:05.612Z,16.30
2022-08-17T17:43:39.795Z,17.60
2022-08-17T17:46:27.723Z,16.95
2022-08-17T17:48:58.428Z,16.85
2022-08-17T17:52:06.327Z,16.38
2022-08-17T17:55:00.448Z,14.77
2022-08-17T17:57:45.338Z,15.68
2022-08-17T18:00:23.313Z,16.05
2022-08-17T18:03:11.069Z,15.43
2022-08-17T18:05:56.429Z,14.48
2022-08-17T18:08:45.763Z,15.32
2022-08-17T18:11:33.070Z,14.55
2022-08-17T18:14:17.418Z,14.32
2022-08-17T18:16:54.670Z,15.65
2022-08-17T18:19:25.786Z,13.85
2022-08-17T18:22:07.366Z,15.15
2022-08-17T18:24:46.914Z,14.65
2022-08-17T18:27:32.078Z,14.88
2022-08-17T18:30:07.267Z,14.82
2022-08-17T18:32:43.634Z,13.73
2022-08-17T18:35:35.292Z,15.32
2022-08-17T18:38:24.595Z,14.15
2022-08-17T18:41:06.016Z,14.80
2022-08-17T18:43:52.896Z,14.68
2022-08-17T18:46:37.820Z,14.35
2022-08-17T18:49:28.700Z,14.52
2022-08-17T18:52:15.779Z,14.95
2022-08-17T18:55:09.758Z,14.57
2022-08-17T18:57:43.091Z,13.88
2022-08-17T19:00:20.888Z,14.50
2022-08-17T19:02:56.746Z,14.13
2022-08-17T19:05:37.144Z,14.45
2022-08-17T19:08:24.364Z,13.20
2022-08-17T19:11:00.173Z,13.48
2022-08-17T19:13:37.493Z,14.02
2022-08-17T19:16:15.746Z,13.25
2022-08-17T19:18:55.028Z,13.27
2022-08-17T19:21:34.535Z,13.35
2022-08-17T19:24:12.162Z,12.60
2022-08-17T19:26:50.642Z,12.15
2022-08-17T19:29:31.860Z,12.32
2022-08-17T19:32:05.255Z,12.52
2022-08-17T19:34:38.968Z,13.20
2022-08-17T19:37:24.846Z,11.55
2022-08-17T19:40:04.049Z,12.40
2022-08-17T19:42:47.625Z,12.40
2022-08-17T19:45:34.872Z,12.18
2022-08-17T19:48:18.159Z,11.50
2022-08-17T19:50:56.682Z,11.52
2022-08-17T19:54:04.326Z,11.88
2022-08-17T19:56:47.731Z,10.98
2022-08-17T19:59:28.474Z,11.38
2022-08-17T20:02:22.166Z,11.02
2022-08-17T20:07:30.466Z,9.30
2022-08-17T20:10:09.389Z,8.95
2022-08-17T20:12:44.691Z,8.23
2022-08-17T20:17:49.655Z,7.28
2022-08-17T20:20:29.848Z,7.05
2022-08-17T20:23:06.537Z,7.07
2022-08-17T20:25:55.998Z,6.93
2022-08-17T20:28:29.587Z,7.60
2022-08-17T20:30:59.967Z,8.02
2022-08-17T20:33:34.375Z,8.60
2022-08-17T20:36:21.064Z,8.60
2022-08-17T20:38:56.980Z,7.35
2022-08-17T20:41:31.162Z,8.18
2022-08-17T20:44:33.534Z,8.27
2022-08-17T20:47:11.295Z,8.40
2022-08-17T20:49:53.623Z,7.93
2022-08-17T20:52:51.092Z,8.23
2022-08-17T20:55:54.931Z,8.23
2022-08-17T20:58:56.773Z,8.13
2022-08-17T21:01:40.826Z,8.85
2022-08-17T21:04:47.720Z,8.18
2022-08-17T21:07:41.116Z,8.35
2022-08-17T21:10:18.189Z,8.88
2022-08-17T21:12:54.657Z,8.47
2022-08-17T21:15:37.691Z,8.63
2022-08-17T21:18:16.998Z,8.25
2022-08-17T21:21:07.757Z,8.70
2022-08-17T21:24:03.207Z,8.23
2022-08-17T21:26:50.286Z,7.35
2022-08-17T21:29:31.488Z,7.97
2022-08-17T21:32:24.617Z,8.57
2022-08-17T21:35:28.517Z,8.23
2022-08-17T21:38:05.198Z,8.50
2022-08-17T21:40:36.385Z,9.05
2022-08-17T21:43:33.843Z,9.02
2022-08-17T21:46:06.317Z,8.52
2022-08-17T21:48:48.339Z,9.63
2022-08-17T21:51:23.624Z,8.82
2022-08-17T21:53:57.758Z,9.85
2022-08-17T21:56:32.293Z,9.38
2022-08-17T21:59:05.793Z,9.43
2022-08-17T22:01:36.775Z,9.40
2022-08-17T22:04:22.515Z,9.73
2022-08-17T22:09:31.854Z,10.00
2022-08-17T22:12:12.227Z,9.73
2022-08-17T22:14:53.164Z,10.00
2022-08-17T22:17:26.719Z,11.00
2022-08-17T22:20:03.257Z,10.27
2022-08-17T22:22:56.933Z,10.40
2022-08-17T22:25:29.734Z,9.85
2022-08-17T22:28:04.343Z,10.43
2022-08-17T22:30:37.745Z,10.20
2022-08-17T22:33:37.459Z,10.48
2022-08-17T22:36:25.720Z,8.85
2022-08-17T22:38:58.783Z,9.10
2022-08-17T22:41:43.443Z,7.20
2022-08-17T22:44:31.791Z,6.90
2022-08-17T22:47:11.421Z,6.65
2022-08-17T22:49:54.193Z,6.78
2022-08-17T22:52:58.055Z,6.30
2022-08-17T22:55:46.426Z,6.75
2022-08-17T22:58:37.144Z,6.30
2022-08-17T23:01:28.264Z,6.53
2022-08-17T23:04:01.724Z,6.25
2022-08-17T23:06:32.665Z,6.50
2022-08-17T23:09:07.507Z,5.88
2022-08-17T23:11:49.089Z,5.88
2022-08-17T23:14:21.224Z,5.57
2022-08-17T23:16:52.155Z,5.75
2022-08-17T23:19:24.139Z,5.90
2022-08-17T23:21:55.182Z,5.60
2022-08-17T23:24:29.403Z,5.55
2022-08-17T23:26:59.808Z,5.28
2022-08-17T23:29:29.586Z,5.18
2022-08-17T23:32:01.281Z,5.07
2022-08-17T23:34:33.529Z,5.07
2022-08-17T23:37:04.435Z,5.20
2022-08-17T23:39:35.017Z,5.03
2022-08-17T23:42:10.900Z,4.45
2022-08-17T23:44:44.044Z,4.65
2022-08-17T23:47:13.179Z,5.00
2022-08-17T23:49:42.543Z,5.20
2022-08-17T23:52:17.072Z,5.05
2022-08-17T23:54:50.261Z,5.20
2022-08-17T23:57:33.733Z,5.65
